sensor_id;sensor_type;location;lat;lon;timestamp;temperature;humidity
65836;SHT30;52595;51.608;7.216;2022-07-06T00:01:09;13.90;77.20
65836;SHT30;52595;51.608;7.216;2022-07-06T00:03:35;13.78;77.70
65836;SHT30;52595;51.608;7.216;2022-07-06T00:06:00;13.72;77.75
65836;SHT30;52595;51.608;7.216;2022-07-06T00:08:26;13.71;78.08
65836;SHT30;52595;51.608;7.216;2022-07-06T00:10:51;13.59;78.24
65836;SHT30;52595;51.608;7.216;2022-07-06T00:13:17;13.58;77.96
65836;SHT30;52595;51.608;7.216;2022-07-06T00:15:42;13.58;77.82
65836;SHT30;52595;51.608;7.216;2022-07-06T00:18:08;13.55;78.05
65836;SHT30;52595;51.608;7.216;2022-07-06T00:20:33;13.50;78.10
65836;SHT30;52595;51.608;7.216;2022-07-06T00:22:59;13.53;77.91
65836;SHT30;52595;51.608;7.216;2022-07-06T00:25:24;13.48;77.93
65836;SHT30;52595;51.608;7.216;2022-07-06T00:27:49;13.40;78.06
65836;SHT30;52595;51.608;7.216;2022-07-06T00:30:15;13.40;77.66
65836;SHT30;52595;51.608;7.216;2022-07-06T00:32:40;13.43;77.82
65836;SHT30;52595;51.608;7.216;2022-07-06T00:35:06;13.44;77.65
65836;SHT30;52595;51.608;7.216;2022-07-06T00:37:31;13.37;77.79
65836;SHT30;52595;51.608;7.216;2022-07-06T00:39:57;13.30;77.73
65836;SHT30;52595;51.608;7.216;2022-07-06T00:42:22;13.24;77.84
65836;SHT30;52595;51.608;7.216;2022-07-06T00:44:49;13.23;77.84
65836;SHT30;52595;51.608;7.216;2022-07-06T00:47:15;13.18;78.02
65836;SHT30;52595;51.608;7.216;2022-07-06T00:49:40;13.17;78.00
65836;SHT30;52595;51.608;7.216;2022-07-06T00:52:24;13.14;78.02
65836;SHT30;52595;51.608;7.216;2022-07-06T00:54:50;13.13;78.06
65836;SHT30;52595;51.608;7.216;2022-07-06T00:57:16;13.10;78.33
65836;SHT30;52595;51.608;7.216;2022-07-06T00:59:42;13.10;78.49
65836;SHT30;52595;51.608;7.216;2022-07-06T01:02:08;13.13;78.34
65836;SHT30;52595;51.608;7.216;2022-07-06T01:04:33;13.30;77.97
65836;SHT30;52595;51.608;7.216;2022-07-06T01:07:00;13.35;78.00
65836;SHT30;52595;51.608;7.216;2022-07-06T01:09:25;13.37;77.60
65836;SHT30;52595;51.608;7.216;2022-07-06T01:11:52;13.34;77.65
65836;SHT30;52595;51.608;7.216;2022-07-06T01:14:17;13.30;77.83
65836;SHT30;52595;51.608;7.216;2022-07-06T01:16:43;13.21;78.11
65836;SHT30;52595;51.608;7.216;2022-07-06T01:19:09;13.11;78.55
65836;SHT30;52595;51.608;7.216;2022-07-06T01:21:37;13.03;78.98
65836;SHT30;52595;51.608;7.216;2022-07-06T01:24:03;12.99;79.06
65836;SHT30;52595;51.608;7.216;2022-07-06T01:26:28;12.90;79.27
65836;SHT30;52595;51.608;7.216;2022-07-06T01:28:54;12.90;79.42
65836;SHT30;52595;51.608;7.216;2022-07-06T01:31:22;12.83;79.49
65836;SHT30;52595;51.608;7.216;2022-07-06T01:33:52;12.76;79.80
65836;SHT30;52595;51.608;7.216;2022-07-06T01:36:19;12.77;79.63
65836;SHT30;52595;51.608;7.216;2022-07-06T01:38:53;12.82;79.36
65836;SHT30;52595;51.608;7.216;2022-07-06T01:41:19;12.90;78.92
65836;SHT30;52595;51.608;7.216;2022-07-06T01:43:46;12.86;78.85
65836;SHT30;52595;51.608;7.216;2022-07-06T01:46:12;12.89;78.83
65836;SHT30;52595;51.608;7.216;2022-07-06T01:48:38;12.80;79.00
65836;SHT30;52595;51.608;7.216;2022-07-06T01:51:04;12.82;78.93
65836;SHT30;52595;51.608;7.216;2022-07-06T01:53:30;12.75;79.24
65836;SHT30;52595;51.608;7.216;2022-07-06T01:55:55;12.72;79.21
65836;SHT30;52595;51.608;7.216;2022-07-06T01:58:21;12.60;79.82
65836;SHT30;52595;51.608;7.216;2022-07-06T02:00:46;12.55;79.93
65836;SHT30;52595;51.608;7.216;2022-07-06T02:03:12;12.43;80.63
65836;SHT30;52595;51.608;7.216;2022-07-06T02:05:37;12.43;80.35
65836;SHT30;52595;51.608;7.216;2022-07-06T02:08:02;12.36;80.77
65836;SHT30;52595;51.608;7.216;2022-07-06T02:10:28;12.33;80.88
65836;SHT30;52595;51.608;7.216;2022-07-06T02:12:53;12.39;80.47
65836;SHT30;52595;51.608;7.216;2022-07-06T02:15:19;12.38;80.50
65836;SHT30;52595;51.608;7.216;2022-07-06T02:17:44;12.36;80.54
65836;SHT30;52595;51.608;7.216;2022-07-06T02:20:10;12.29;80.67
65836;SHT30;52595;51.608;7.216;2022-07-06T02:22:35;12.25;80.91
65836;SHT30;52595;51.608;7.216;2022-07-06T02:25:01;12.21;80.87
65836;SHT30;52595;51.608;7.216;2022-07-06T02:27:26;12.11;81.37
65836;SHT30;52595;51.608;7.216;2022-07-06T02:29:52;12.06;81.86
65836;SHT30;52595;51.608;7.216;2022-07-06T02:32:17;12.01;81.96
65836;SHT30;52595;51.608;7.216;2022-07-06T02:34:43;12.04;82.12
65836;SHT30;52595;51.608;7.216;2022-07-06T02:37:08;12.04;82.00
65836;SHT30;52595;51.608;7.216;2022-07-06T02:39:34;12.04;82.13
65836;SHT30;52595;51.608;7.216;2022-07-06T02:41:59;11.97;82.54
65836;SHT30;52595;51.608;7.216;2022-07-06T02:44:25;11.89;82.89
65836;SHT30;52595;51.608;7.216;2022-07-06T02:46:50;11.87;83.05
65836;SHT30;52595;51.608;7.216;2022-07-06T02:49:16;12.05;82.47
65836;SHT30;52595;51.608;7.216;2022-07-06T02:51:41;12.12;82.36
65836;SHT30;52595;51.608;7.216;2022-07-06T02:54:07;12.25;81.91
65836;SHT30;52595;51.608;7.216;2022-07-06T02:56:32;12.25;81.97
65836;SHT30;52595;51.608;7.216;2022-07-06T02:58:57;12.21;82.00
65836;SHT30;52595;51.608;7.216;2022-07-06T03:01:23;12.11;82.38
65836;SHT30;52595;51.608;7.216;2022-07-06T03:03:48;12.15;82.25
65836;SHT30;52595;51.608;7.216;2022-07-06T03:06:14;12.24;82.17
65836;SHT30;52595;51.608;7.216;2022-07-06T03:08:39;12.19;82.45
65836;SHT30;52595;51.608;7.216;2022-07-06T03:11:04;12.24;82.34
65836;SHT30;52595;51.608;7.216;2022-07-06T03:13:30;12.21;82.36
65836;SHT30;52595;51.608;7.216;2022-07-06T03:15:55;12.28;82.37
65836;SHT30;52595;51.608;7.216;2022-07-06T03:18:21;12.26;82.47
65836;SHT30;52595;51.608;7.216;2022-07-06T03:20:46;12.25;82.42
65836;SHT30;52595;51.608;7.216;2022-07-06T03:23:12;12.22;82.82
65836;SHT30;52595;51.608;7.216;2022-07-06T03:25:37;12.28;82.65
65836;SHT30;52595;51.608;7.216;2022-07-06T03:28:02;12.33;82.63
65836;SHT30;52595;51.608;7.216;2022-07-06T03:30:28;12.46;82.09
65836;SHT30;52595;51.608;7.216;2022-07-06T03:32:53;12.53;82.02
65836;SHT30;52595;51.608;7.216;2022-07-06T03:35:19;12.67;81.53
65836;SHT30;52595;51.608;7.216;2022-07-06T03:37:44;12.72;81.36
65836;SHT30;52595;51.608;7.216;2022-07-06T03:40:10;12.70;81.59
65836;SHT30;52595;51.608;7.216;2022-07-06T03:42:36;12.66;81.62
65836;SHT30;52595;51.608;7.216;2022-07-06T03:45:03;12.75;81.48
65836;SHT30;52595;51.608;7.216;2022-07-06T03:47:28;12.80;81.17
65836;SHT30;52595;51.608;7.216;2022-07-06T03:49:54;12.83;81.14
65836;SHT30;52595;51.608;7.216;2022-07-06T03:52:19;12.83;81.23
65836;SHT30;52595;51.608;7.216;2022-07-06T03:54:45;12.82;81.16
65836;SHT30;52595;51.608;7.216;2022-07-06T03:57:10;12.83;81.26
65836;SHT30;52595;51.608;7.216;2022-07-06T03:59:38;12.92;81.09
65836;SHT30;52595;51.608;7.216;2022-07-06T04:02:04;12.96;80.92
65836;SHT30;52595;51.608;7.216;2022-07-06T04:04:29;12.93;81.06
65836;SHT30;52595;51.608;7.216;2022-07-06T04:06:55;12.90;81.05
65836;SHT30;52595;51.608;7.216;2022-07-06T04:09:20;12.90;81.38
65836;SHT30;52595;51.608;7.216;2022-07-06T04:11:45;12.89;81.25
65836;SHT30;52595;51.608;7.216;2022-07-06T04:14:11;12.84;81.46
65836;SHT30;52595;51.608;7.216;2022-07-06T04:16:36;12.79;81.85
65836;SHT30;52595;51.608;7.216;2022-07-06T04:19:01;12.76;81.79
65836;SHT30;52595;51.608;7.216;2022-07-06T04:21:27;12.72;82.13
65836;SHT30;52595;51.608;7.216;2022-07-06T04:23:52;12.62;82.51
65836;SHT30;52595;51.608;7.216;2022-07-06T04:26:18;12.60;82.67
65836;SHT30;52595;51.608;7.216;2022-07-06T04:28:43;12.57;83.01
65836;SHT30;52595;51.608;7.216;2022-07-06T04:31:08;12.66;82.81
65836;SHT30;52595;51.608;7.216;2022-07-06T04:33:34;12.64;82.79
65836;SHT30;52595;51.608;7.216;2022-07-06T04:36:00;12.62;82.85
65836;SHT30;52595;51.608;7.216;2022-07-06T04:38:25;12.55;83.11
65836;SHT30;52595;51.608;7.216;2022-07-06T04:40:50;12.63;83.08
65836;SHT30;52595;51.608;7.216;2022-07-06T04:43:16;12.63;83.03
65836;SHT30;52595;51.608;7.216;2022-07-06T04:45:41;12.64;83.05
65836;SHT30;52595;51.608;7.216;2022-07-06T04:48:07;12.70;83.00
65836;SHT30;52595;51.608;7.216;2022-07-06T04:50:33;12.70;83.25
65836;SHT30;52595;51.608;7.216;2022-07-06T04:52:59;12.75;82.96
65836;SHT30;52595;51.608;7.216;2022-07-06T04:55:25;12.77;82.78
65836;SHT30;52595;51.608;7.216;2022-07-06T04:57:51;12.82;82.90
65836;SHT30;52595;51.608;7.216;2022-07-06T05:00:17;12.82;82.89
65836;SHT30;52595;51.608;7.216;2022-07-06T05:02:43;12.87;82.68
65836;SHT30;52595;51.608;7.216;2022-07-06T05:05:08;12.93;82.67
65836;SHT30;52595;51.608;7.216;2022-07-06T05:07:35;12.97;82.35
65836;SHT30;52595;51.608;7.216;2022-07-06T05:10:06;13.03;82.49
65836;SHT30;52595;51.608;7.216;2022-07-06T05:12:31;13.07;82.04
65836;SHT30;52595;51.608;7.216;2022-07-06T05:14:56;13.14;81.64
65836;SHT30;52595;51.608;7.216;2022-07-06T05:17:22;13.23;81.53
65836;SHT30;52595;51.608;7.216;2022-07-06T05:19:48;13.23;81.51
65836;SHT30;52595;51.608;7.216;2022-07-06T05:22:13;13.25;81.29
65836;SHT30;52595;51.608;7.216;2022-07-06T05:24:39;13.40;81.07
65836;SHT30;52595;51.608;7.216;2022-07-06T05:27:04;13.59;80.91
65836;SHT30;52595;51.608;7.216;2022-07-06T05:29:29;13.72;80.35
65836;SHT30;52595;51.608;7.216;2022-07-06T05:31:55;13.89;79.72
65836;SHT30;52595;51.608;7.216;2022-07-06T05:34:20;14.01;79.52
65836;SHT30;52595;51.608;7.216;2022-07-06T05:36:46;14.15;79.09
65836;SHT30;52595;51.608;7.216;2022-07-06T05:39:11;14.26;78.50
65836;SHT30;52595;51.608;7.216;2022-07-06T05:41:36;14.47;78.12
65836;SHT30;52595;51.608;7.216;2022-07-06T05:44:02;14.49;77.70
65836;SHT30;52595;51.608;7.216;2022-07-06T05:46:27;14.50;78.03
65836;SHT30;52595;51.608;7.216;2022-07-06T05:48:53;14.67;77.22
65836;SHT30;52595;51.608;7.216;2022-07-06T05:51:37;14.56;77.17
65836;SHT30;52595;51.608;7.216;2022-07-06T05:54:03;14.69;77.37
65836;SHT30;52595;51.608;7.216;2022-07-06T05:56:28;15.01;76.60
65836;SHT30;52595;51.608;7.216;2022-07-06T05:58:53;15.15;75.75
65836;SHT30;52595;51.608;7.216;2022-07-06T06:01:19;14.98;76.19
65836;SHT30;52595;51.608;7.216;2022-07-06T06:03:44;14.91;76.22
65836;SHT30;52595;51.608;7.216;2022-07-06T06:06:09;14.87;75.81
65836;SHT30;52595;51.608;7.216;2022-07-06T06:08:35;14.81;76.12
65836;SHT30;52595;51.608;7.216;2022-07-06T06:11:00;14.98;75.98
65836;SHT30;52595;51.608;7.216;2022-07-06T06:13:26;15.17;75.38
65836;SHT30;52595;51.608;7.216;2022-07-06T06:15:51;15.10;75.31
65836;SHT30;52595;51.608;7.216;2022-07-06T06:18:16;15.10;75.58
65836;SHT30;52595;51.608;7.216;2022-07-06T06:20:44;15.14;75.07
65836;SHT30;52595;51.608;7.216;2022-07-06T06:23:09;15.20;75.35
65836;SHT30;52595;51.608;7.216;2022-07-06T06:25:37;15.20;75.14
65836;SHT30;52595;51.608;7.216;2022-07-06T06:28:06;15.10;75.20
65836;SHT30;52595;51.608;7.216;2022-07-06T06:30:32;15.25;74.75
65836;SHT30;52595;51.608;7.216;2022-07-06T06:35:30;15.39;74.18
65836;SHT30;52595;51.608;7.216;2022-07-06T06:37:56;15.41;74.11
65836;SHT30;52595;51.608;7.216;2022-07-06T06:40:21;15.41;74.11
65836;SHT30;52595;51.608;7.216;2022-07-06T06:42:47;15.75;73.30
65836;SHT30;52595;51.608;7.216;2022-07-06T06:45:13;15.96;72.55
65836;SHT30;52595;51.608;7.216;2022-07-06T06:47:38;16.09;72.11
65836;SHT30;52595;51.608;7.216;2022-07-06T06:50:04;16.16;72.19
65836;SHT30;52595;51.608;7.216;2022-07-06T06:52:29;16.29;71.31
65836;SHT30;52595;51.608;7.216;2022-07-06T06:54:55;16.52;70.78
65836;SHT30;52595;51.608;7.216;2022-07-06T06:57:20;16.43;70.68
65836;SHT30;52595;51.608;7.216;2022-07-06T06:59:46;16.49;70.47
65836;SHT30;52595;51.608;7.216;2022-07-06T07:02:11;16.42;70.40
65836;SHT30;52595;51.608;7.216;2022-07-06T07:04:37;16.33;70.74
65836;SHT30;52595;51.608;7.216;2022-07-06T07:07:02;16.27;70.87
65836;SHT30;52595;51.608;7.216;2022-07-06T07:09:28;16.59;69.50
65836;SHT30;52595;51.608;7.216;2022-07-06T07:11:53;16.42;69.54
65836;SHT30;52595;51.608;7.216;2022-07-06T07:14:20;16.49;69.83
65836;SHT30;52595;51.608;7.216;2022-07-06T07:16:45;16.88;68.40
65836;SHT30;52595;51.608;7.216;2022-07-06T07:19:10;16.57;68.48
65836;SHT30;52595;51.608;7.216;2022-07-06T07:21:36;16.73;68.58
65836;SHT30;52595;51.608;7.216;2022-07-06T07:24:01;16.70;67.52
65836;SHT30;52595;51.608;7.216;2022-07-06T07:26:27;17.17;67.09
65836;SHT30;52595;51.608;7.216;2022-07-06T07:28:52;17.29;65.85
65836;SHT30;52595;51.608;7.216;2022-07-06T07:31:17;17.15;66.91
65836;SHT30;52595;51.608;7.216;2022-07-06T07:33:43;17.15;65.67
65836;SHT30;52595;51.608;7.216;2022-07-06T07:36:08;16.77;66.61
65836;SHT30;52595;51.608;7.216;2022-07-06T07:38:34;16.84;66.11
65836;SHT30;52595;51.608;7.216;2022-07-06T07:40:59;17.17;65.63
65836;SHT30;52595;51.608;7.216;2022-07-06T07:43:25;16.89;65.96
65836;SHT30;52595;51.608;7.216;2022-07-06T07:45:50;16.73;66.91
65836;SHT30;52595;51.608;7.216;2022-07-06T07:48:16;17.36;66.06
65836;SHT30;52595;51.608;7.216;2022-07-06T07:50:42;17.62;64.77
65836;SHT30;52595;51.608;7.216;2022-07-06T07:53:07;17.34;64.96
65836;SHT30;52595;51.608;7.216;2022-07-06T07:55:33;17.21;64.77
65836;SHT30;52595;51.608;7.216;2022-07-06T07:57:58;17.50;64.54
65836;SHT30;52595;51.608;7.216;2022-07-06T08:00:24;17.38;65.02
65836;SHT30;52595;51.608;7.216;2022-07-06T08:02:50;16.65;65.96
65836;SHT30;52595;51.608;7.216;2022-07-06T08:05:16;16.98;65.81
65836;SHT30;52595;51.608;7.216;2022-07-06T08:07:42;17.01;65.82
65836;SHT30;52595;51.608;7.216;2022-07-06T08:10:08;17.24;65.45
65836;SHT30;52595;51.608;7.216;2022-07-06T08:12:35;17.39;64.90
65836;SHT30;52595;51.608;7.216;2022-07-06T08:15:00;17.46;64.18
65836;SHT30;52595;51.608;7.216;2022-07-06T08:17:26;17.25;65.37
65836;SHT30;52595;51.608;7.216;2022-07-06T08:19:51;17.40;64.72
65836;SHT30;52595;51.608;7.216;2022-07-06T08:22:17;16.88;65.19
65836;SHT30;52595;51.608;7.216;2022-07-06T08:24:42;16.75;65.58
65836;SHT30;52595;51.608;7.216;2022-07-06T08:27:08;16.83;65.29
65836;SHT30;52595;51.608;7.216;2022-07-06T08:29:33;17.04;64.71
65836;SHT30;52595;51.608;7.216;2022-07-06T08:31:59;17.25;63.82
65836;SHT30;52595;51.608;7.216;2022-07-06T08:34:24;17.34;64.54
65836;SHT30;52595;51.608;7.216;2022-07-06T08:36:50;17.90;62.12
65836;SHT30;52595;51.608;7.216;2022-07-06T08:39:15;17.90;61.50
65836;SHT30;52595;51.608;7.216;2022-07-06T08:41:42;17.97;61.40
65836;SHT30;52595;51.608;7.216;2022-07-06T08:44:09;17.82;60.80
65836;SHT30;52595;51.608;7.216;2022-07-06T08:46:35;17.50;61.78
65836;SHT30;52595;51.608;7.216;2022-07-06T08:49:03;17.39;61.00
65836;SHT30;52595;51.608;7.216;2022-07-06T08:51:29;17.99;60.00
65836;SHT30;52595;51.608;7.216;2022-07-06T08:53:55;18.41;59.40
65836;SHT30;52595;51.608;7.216;2022-07-06T08:56:22;18.54;58.83
65836;SHT30;52595;51.608;7.216;2022-07-06T08:58:48;18.64;58.46
65836;SHT30;52595;51.608;7.216;2022-07-06T09:01:14;18.07;58.88
65836;SHT30;52595;51.608;7.216;2022-07-06T09:03:43;18.34;57.94
65836;SHT30;52595;51.608;7.216;2022-07-06T09:06:10;18.83;56.86
65836;SHT30;52595;51.608;7.216;2022-07-06T09:08:37;18.57;56.34
65836;SHT30;52595;51.608;7.216;2022-07-06T09:11:03;18.09;56.90
65836;SHT30;52595;51.608;7.216;2022-07-06T09:13:29;18.29;56.21
65836;SHT30;52595;51.608;7.216;2022-07-06T09:15:54;18.20;55.51
65836;SHT30;52595;51.608;7.216;2022-07-06T09:18:23;17.89;57.28
65836;SHT30;52595;51.608;7.216;2022-07-06T09:20:48;18.09;56.99
65836;SHT30;52595;51.608;7.216;2022-07-06T09:23:16;18.43;56.78
65836;SHT30;52595;51.608;7.216;2022-07-06T09:25:47;18.17;57.15
65836;SHT30;52595;51.608;7.216;2022-07-06T09:28:14;18.53;56.43
65836;SHT30;52595;51.608;7.216;2022-07-06T09:30:39;18.64;56.80
65836;SHT30;52595;51.608;7.216;2022-07-06T09:33:07;18.89;56.01
65836;SHT30;52595;51.608;7.216;2022-07-06T09:35:37;19.29;55.23
65836;SHT30;52595;51.608;7.216;2022-07-06T09:38:11;19.25;54.64
65836;SHT30;52595;51.608;7.216;2022-07-06T09:40:38;19.32;53.53
65836;SHT30;52595;51.608;7.216;2022-07-06T09:43:17;18.88;53.37
65836;SHT30;52595;51.608;7.216;2022-07-06T09:45:49;19.28;52.07
65836;SHT30;52595;51.608;7.216;2022-07-06T09:48:17;18.55;55.63
65836;SHT30;52595;51.608;7.216;2022-07-06T09:51:02;18.84;55.88
65836;SHT30;52595;51.608;7.216;2022-07-06T09:53:28;18.95;55.54
65836;SHT30;52595;51.608;7.216;2022-07-06T09:55:55;18.85;54.60
65836;SHT30;52595;51.608;7.216;2022-07-06T09:58:23;18.54;55.80
65836;SHT30;52595;51.608;7.216;2022-07-06T10:00:49;18.64;56.46
65836;SHT30;52595;51.608;7.216;2022-07-06T10:03:16;18.45;56.86
65836;SHT30;52595;51.608;7.216;2022-07-06T10:05:44;18.41;56.42
65836;SHT30;52595;51.608;7.216;2022-07-06T10:08:13;18.40;56.71
65836;SHT30;52595;51.608;7.216;2022-07-06T10:10:39;18.72;56.43
65836;SHT30;52595;51.608;7.216;2022-07-06T10:13:06;19.04;55.12
65836;SHT30;52595;51.608;7.216;2022-07-06T10:15:33;19.43;54.83
65836;SHT30;52595;51.608;7.216;2022-07-06T10:18:04;19.52;53.84
65836;SHT30;52595;51.608;7.216;2022-07-06T10:20:35;20.63;50.73
65836;SHT30;52595;51.608;7.216;2022-07-06T10:23:06;20.38;47.32
65836;SHT30;52595;51.608;7.216;2022-07-06T10:25:33;20.33;49.10
65836;SHT30;52595;51.608;7.216;2022-07-06T10:27:59;20.56;48.79
65836;SHT30;52595;51.608;7.216;2022-07-06T10:30:27;20.30;50.47
65836;SHT30;52595;51.608;7.216;2022-07-06T10:32:55;19.46;50.91
65836;SHT30;52595;51.608;7.216;2022-07-06T10:35:21;19.87;50.68
65836;SHT30;52595;51.608;7.216;2022-07-06T10:38:06;19.22;52.41
65836;SHT30;52595;51.608;7.216;2022-07-06T10:40:37;19.30;52.24
65836;SHT30;52595;51.608;7.216;2022-07-06T10:43:21;19.49;52.36
65836;SHT30;52595;51.608;7.216;2022-07-06T10:50:49;19.97;51.74
65836;SHT30;52595;51.608;7.216;2022-07-06T10:53:17;20.01;50.50
65836;SHT30;52595;51.608;7.216;2022-07-06T10:55:47;19.89;50.21
65836;SHT30;52595;51.608;7.216;2022-07-06T10:58:13;19.98;52.17
65836;SHT30;52595;51.608;7.216;2022-07-06T11:00:54;20.47;51.83
65836;SHT30;52595;51.608;7.216;2022-07-06T11:06:01;20.89;49.10
65836;SHT30;52595;51.608;7.216;2022-07-06T11:17:21;20.00;51.15
65836;SHT30;52595;51.608;7.216;2022-07-06T11:19:26;19.97;51.49
65836;SHT30;52595;51.608;7.216;2022-07-06T11:21:53;20.64;50.32
65836;SHT30;52595;51.608;7.216;2022-07-06T11:24:28;20.89;49.49
65836;SHT30;52595;51.608;7.216;2022-07-06T11:26:55;20.78;49.29
65836;SHT30;52595;51.608;7.216;2022-07-06T11:29:22;21.36;48.63
65836;SHT30;52595;51.608;7.216;2022-07-06T11:31:55;21.12;47.99
65836;SHT30;52595;51.608;7.216;2022-07-06T11:34:24;21.05;48.16
65836;SHT30;52595;51.608;7.216;2022-07-06T11:36:57;22.37;45.61
65836;SHT30;52595;51.608;7.216;2022-07-06T11:39:26;22.92;44.18
65836;SHT30;52595;51.608;7.216;2022-07-06T11:41:51;24.36;42.19
65836;SHT30;52595;51.608;7.216;2022-07-06T11:44:17;22.84;43.84
65836;SHT30;52595;51.608;7.216;2022-07-06T11:46:43;22.98;44.68
65836;SHT30;52595;51.608;7.216;2022-07-06T11:49:09;20.99;48.62
65836;SHT30;52595;51.608;7.216;2022-07-06T11:51:38;21.54;48.27
65836;SHT30;52595;51.608;7.216;2022-07-06T11:54:11;21.89;47.68
65836;SHT30;52595;51.608;7.216;2022-07-06T11:56:38;22.52;45.54
65836;SHT30;52595;51.608;7.216;2022-07-06T11:59:10;22.98;44.41
65836;SHT30;52595;51.608;7.216;2022-07-06T12:01:36;21.87;45.66
65836;SHT30;52595;51.608;7.216;2022-07-06T12:04:06;21.50;47.43
65836;SHT30;52595;51.608;7.216;2022-07-06T12:06:32;22.28;45.42
65836;SHT30;52595;51.608;7.216;2022-07-06T12:08:59;24.11;41.53
65836;SHT30;52595;51.608;7.216;2022-07-06T12:11:30;24.86;41.11
65836;SHT30;52595;51.608;7.216;2022-07-06T12:13:59;24.28;38.90
65836;SHT30;52595;51.608;7.216;2022-07-06T12:16:34;25.30;38.46
65836;SHT30;52595;51.608;7.216;2022-07-06T12:19:01;24.11;39.35
65836;SHT30;52595;51.608;7.216;2022-07-06T12:21:27;25.06;37.68
65836;SHT30;52595;51.608;7.216;2022-07-06T12:23:54;24.36;38.87
65836;SHT30;52595;51.608;7.216;2022-07-06T12:26:22;22.75;41.47
65836;SHT30;52595;51.608;7.216;2022-07-06T12:29:10;24.07;40.58
65836;SHT30;52595;51.608;7.216;2022-07-06T12:31:58;25.77;37.94
65836;SHT30;52595;51.608;7.216;2022-07-06T12:34:26;24.89;39.16
65836;SHT30;52595;51.608;7.216;2022-07-06T12:36:58;23.40;41.00
65836;SHT30;52595;51.608;7.216;2022-07-06T12:39:26;24.31;39.19
65836;SHT30;52595;51.608;7.216;2022-07-06T12:42:02;23.74;40.93
65836;SHT30;52595;51.608;7.216;2022-07-06T12:44:30;24.00;40.59
65836;SHT30;52595;51.608;7.216;2022-07-06T12:47:06;23.57;40.54
65836;SHT30;52595;51.608;7.216;2022-07-06T12:49:33;23.45;41.40
65836;SHT30;52595;51.608;7.216;2022-07-06T12:52:00;23.77;41.02
65836;SHT30;52595;51.608;7.216;2022-07-06T12:54:37;24.89;38.41
65836;SHT30;52595;51.608;7.216;2022-07-06T12:57:24;24.73;38.60
65836;SHT30;52595;51.608;7.216;2022-07-06T13:02:26;23.70;40.15
65836;SHT30;52595;51.608;7.216;2022-07-06T13:05:03;24.22;39.74
65836;SHT30;52595;51.608;7.216;2022-07-06T13:07:30;24.29;39.33
65836;SHT30;52595;51.608;7.216;2022-07-06T13:10:10;24.13;39.73
65836;SHT30;52595;51.608;7.216;2022-07-06T13:12:36;23.20;41.18
65836;SHT30;52595;51.608;7.216;2022-07-06T13:15:04;23.15;42.69
65836;SHT30;52595;51.608;7.216;2022-07-06T13:17:30;23.59;42.04
65836;SHT30;52595;51.608;7.216;2022-07-06T13:19:55;23.90;40.36
65836;SHT30;52595;51.608;7.216;2022-07-06T13:22:21;25.51;37.51
65836;SHT30;52595;51.608;7.216;2022-07-06T13:24:46;25.73;38.01
65836;SHT30;52595;51.608;7.216;2022-07-06T13:27:12;25.44;38.39
65836;SHT30;52595;51.608;7.216;2022-07-06T13:29:38;25.02;38.29
65836;SHT30;52595;51.608;7.216;2022-07-06T13:32:04;26.38;35.95
65836;SHT30;52595;51.608;7.216;2022-07-06T13:34:30;25.16;36.16
65836;SHT30;52595;51.608;7.216;2022-07-06T13:36:56;25.56;37.25
65836;SHT30;52595;51.608;7.216;2022-07-06T13:39:21;25.63;36.64
65836;SHT30;52595;51.608;7.216;2022-07-06T13:41:47;24.75;39.13
65836;SHT30;52595;51.608;7.216;2022-07-06T13:44:12;23.78;40.58
65836;SHT30;52595;51.608;7.216;2022-07-06T13:46:38;23.38;41.34
65836;SHT30;52595;51.608;7.216;2022-07-06T13:49:05;22.99;41.77
65836;SHT30;52595;51.608;7.216;2022-07-06T13:51:31;22.91;42.04
65836;SHT30;52595;51.608;7.216;2022-07-06T13:53:58;22.96;41.60
65836;SHT30;52595;51.608;7.216;2022-07-06T13:56:23;22.65;41.95
65836;SHT30;52595;51.608;7.216;2022-07-06T13:58:48;21.74;43.56
65836;SHT30;52595;51.608;7.216;2022-07-06T14:01:14;22.04;43.51
65836;SHT30;52595;51.608;7.216;2022-07-06T14:03:39;22.61;42.02
65836;SHT30;52595;51.608;7.216;2022-07-06T14:06:06;22.37;42.64
65836;SHT30;52595;51.608;7.216;2022-07-06T14:08:34;23.70;40.44
65836;SHT30;52595;51.608;7.216;2022-07-06T14:10:59;24.07;39.28
65836;SHT30;52595;51.608;7.216;2022-07-06T14:13:26;23.77;40.28
65836;SHT30;52595;51.608;7.216;2022-07-06T14:15:52;24.56;38.58
65836;SHT30;52595;51.608;7.216;2022-07-06T14:18:17;24.21;38.76
65836;SHT30;52595;51.608;7.216;2022-07-06T14:20:46;23.42;40.99
65836;SHT30;52595;51.608;7.216;2022-07-06T14:23:13;23.10;42.24
65836;SHT30;52595;51.608;7.216;2022-07-06T14:25:39;24.71;39.19
65836;SHT30;52595;51.608;7.216;2022-07-06T14:28:05;23.54;40.14
65836;SHT30;52595;51.608;7.216;2022-07-06T14:30:32;23.47;40.70
65836;SHT30;52595;51.608;7.216;2022-07-06T14:32:57;22.96;41.45
65836;SHT30;52595;51.608;7.216;2022-07-06T14:35:23;23.16;42.26
65836;SHT30;52595;51.608;7.216;2022-07-06T14:37:50;22.91;41.90
65836;SHT30;52595;51.608;7.216;2022-07-06T14:40:15;22.82;42.08
65836;SHT30;52595;51.608;7.216;2022-07-06T14:42:41;23.10;41.76
65836;SHT30;52595;51.608;7.216;2022-07-06T14:45:07;23.10;41.84
65836;SHT30;52595;51.608;7.216;2022-07-06T14:47:32;23.05;41.01
65836;SHT30;52595;51.608;7.216;2022-07-06T14:49:57;23.16;42.01
65836;SHT30;52595;51.608;7.216;2022-07-06T14:52:23;22.64;42.41
65836;SHT30;52595;51.608;7.216;2022-07-06T14:54:48;22.43;42.02
65836;SHT30;52595;51.608;7.216;2022-07-06T14:57:14;22.98;42.26
65836;SHT30;52595;51.608;7.216;2022-07-06T14:59:39;23.10;41.04
65836;SHT30;52595;51.608;7.216;2022-07-06T15:02:04;23.26;40.51
65836;SHT30;52595;51.608;7.216;2022-07-06T15:04:30;23.81;40.54
65836;SHT30;52595;51.608;7.216;2022-07-06T15:06:57;24.89;38.30
65836;SHT30;52595;51.608;7.216;2022-07-06T15:09:23;24.38;39.07
65836;SHT30;52595;51.608;7.216;2022-07-06T15:11:49;23.40;40.44
65836;SHT30;52595;51.608;7.216;2022-07-06T15:14:14;24.01;40.04
65836;SHT30;52595;51.608;7.216;2022-07-06T15:16:42;24.11;38.91
65836;SHT30;52595;51.608;7.216;2022-07-06T15:19:09;24.29;38.79
65836;SHT30;52595;51.608;7.216;2022-07-06T15:21:34;24.34;39.48
65836;SHT30;52595;51.608;7.216;2022-07-06T15:24:00;23.69;41.26
65836;SHT30;52595;51.608;7.216;2022-07-06T15:26:25;23.67;40.62
65836;SHT30;52595;51.608;7.216;2022-07-06T15:28:51;23.43;40.49
65836;SHT30;52595;51.608;7.216;2022-07-06T15:31:16;24.55;38.42
65836;SHT30;52595;51.608;7.216;2022-07-06T15:33:42;25.97;36.43
65836;SHT30;52595;51.608;7.216;2022-07-06T15:36:07;25.74;37.07
65836;SHT30;52595;51.608;7.216;2022-07-06T15:38:33;24.49;38.63
65836;SHT30;52595;51.608;7.216;2022-07-06T15:41:00;24.51;38.75
65836;SHT30;52595;51.608;7.216;2022-07-06T15:43:28;25.07;37.88
65836;SHT30;52595;51.608;7.216;2022-07-06T15:45:56;24.96;38.07
65836;SHT30;52595;51.608;7.216;2022-07-06T15:48:23;26.01;36.12